createdAt,value
2023-04-09T00:00:34.241Z,101940.22
2023-04-09T00:05:40.366Z,101926.50
2023-04-09T00:10:43.086Z,101933.56
2023-04-09T00:15:47.409Z,101938.78
2023-04-09T00:20:50.386Z,101942.06
2023-04-09T00:25:53.192Z,101942.88
2023-04-09T00:30:57.304Z,101942.81
2023-04-09T00:36:00.141Z,101945.72
2023-04-09T00:41:03.014Z,101938.00
2023-04-09T00:46:07.325Z,101942.84
2023-04-09T00:51:10.256Z,101946.78
2023-04-09T00:56:13.708Z,101942.06
2023-04-09T01:01:17.877Z,101955.66
2023-04-09T01:06:27.021Z,101957.09
2023-04-09T01:11:35.276Z,101958.53
2023-04-09T01:16:40.451Z,101962.03
2023-04-09T01:21:45.552Z,101954.19
2023-04-09T01:26:57.152Z,101955.75
2023-04-09T01:32:05.931Z,101960.84
2023-04-09T01:37:09.586Z,101956.38
2023-04-09T01:42:12.847Z,101966.31
2023-04-09T01:47:17.149Z,101978.47
2023-04-09T01:52:19.926Z,101967.41
2023-04-09T01:57:22.692Z,101987.97
2023-04-09T02:02:31.421Z,101986.94
2023-04-09T02:07:39.321Z,102000.34
2023-04-09T02:12:46.429Z,101999.69
2023-04-09T02:17:52.136Z,101994.50
2023-04-09T02:22:54.923Z,102008.91
2023-04-09T02:27:57.717Z,102010.88
2023-04-09T02:33:01.922Z,102013.69
2023-04-09T02:38:04.821Z,102023.50
2023-04-09T02:43:07.713Z,102017.72
2023-04-09T02:48:11.879Z,102024.59
2023-04-09T02:53:14.620Z,102019.88
2023-04-09T02:58:17.341Z,102023.47
2023-04-09T03:03:21.663Z,102034.53
2023-04-09T03:08:24.543Z,102041.19
2023-04-09T03:13:28.675Z,102031.28
2023-04-09T03:18:32.767Z,102029.19
2023-04-09T03:23:35.855Z,102029.75
2023-04-09T03:28:38.563Z,102038.22
2023-04-09T03:33:42.871Z,102050.72
2023-04-09T03:38:46.880Z,102046.88
2023-04-09T03:44:00.890Z,102050.97
2023-04-09T03:49:10.718Z,102049.63
2023-04-09T03:54:17.764Z,102047.53
2023-04-09T03:59:21.814Z,102034.94
2023-04-09T04:04:26.122Z,102041.63
2023-04-09T04:09:32.392Z,102060.34
2023-04-09T04:14:43.325Z,102063.13
2023-04-09T04:19:58.157Z,102063.09
2023-04-09T04:25:00.975Z,102069.16
2023-04-09T04:30:04.998Z,102082.44
2023-04-09T04:35:29.392Z,102081.63
2023-04-09T04:40:36.766Z,102085.47
2023-04-09T04:45:39.806Z,102099.25
2023-04-09T04:50:48.453Z,102108.91
2023-04-09T04:55:52.215Z,102122.59
2023-04-09T05:01:00.382Z,102129.53
2023-04-09T05:06:05.197Z,102144.38
2023-04-09T05:11:16.904Z,102131.28
2023-04-09T05:16:23.312Z,102138.41
2023-04-09T05:21:35.773Z,102143.94
2023-04-09T05:26:38.941Z,102156.13
2023-04-09T05:31:42.954Z,102156.06
2023-04-09T05:36:59.800Z,102163.84
2023-04-09T05:42:02.677Z,102181.69
2023-04-09T05:47:09.863Z,102190.03
2023-04-09T05:52:21.450Z,102188.59
2023-04-09T05:57:25.108Z,102206.78
2023-04-09T06:02:33.911Z,102212.97
2023-04-09T06:07:38.100Z,102232.22
2023-04-09T06:12:40.901Z,102237.53
2023-04-09T06:17:43.683Z,102242.44
2023-04-09T06:22:47.789Z,102254.25
2023-04-09T06:27:50.495Z,102264.28
2023-04-09T06:32:55.105Z,102272.47
2023-04-09T06:37:59.658Z,102281.00
2023-04-09T06:43:02.433Z,102284.72
2023-04-09T06:48:12.933Z,102286.75
2023-04-09T06:53:17.610Z,102288.66
2023-04-09T06:58:21.007Z,102300.59
2023-04-09T07:03:24.176Z,102305.13
2023-04-09T07:08:28.727Z,102295.72
2023-04-09T07:13:33.177Z,102303.94
2023-04-09T07:18:36.223Z,102300.91
2023-04-09T07:23:40.685Z,102301.53
2023-04-09T07:28:43.421Z,102299.50
2023-04-09T07:33:46.147Z,102298.09
2023-04-09T07:38:50.301Z,102300.09
2023-04-09T07:43:53.057Z,102288.31
2023-04-09T07:48:55.863Z,102298.78
2023-04-09T07:53:59.957Z,102291.94
2023-04-09T07:59:03.223Z,102294.13
2023-04-09T08:04:06.734Z,102273.69
2023-04-09T08:09:11.028Z,102259.94
2023-04-09T08:14:13.848Z,102244.84
2023-04-09T08:19:17.794Z,102224.53
2023-04-09T08:24:21.927Z,102219.19
2023-04-09T08:29:25.011Z,102207.69
2023-04-09T08:34:28.056Z,102178.72
2023-04-09T08:39:32.142Z,102159.03
2023-04-09T08:44:34.927Z,102121.88
2023-04-09T08:49:37.887Z,102078.78
2023-04-09T08:54:42.026Z,102035.81
2023-04-09T08:59:44.784Z,101977.56
2023-04-09T09:04:48.779Z,101940.66
2023-04-09T09:09:54.234Z,101898.38
2023-04-09T09:14:56.964Z,101882.50
2023-04-09T09:19:59.799Z,101857.34
2023-04-09T09:25:04.100Z,101817.53
2023-04-09T09:30:08.518Z,101776.91
2023-04-09T09:35:11.278Z,101745.56
2023-04-09T09:40:27.832Z,101716.16
2023-04-09T09:45:30.549Z,101698.72
2023-04-09T09:50:35.266Z,101673.03
2023-04-09T09:55:41.489Z,101659.38
2023-04-09T10:00:46.294Z,101623.34
2023-04-09T10:05:50.026Z,101598.88
2023-04-09T10:10:54.346Z,101580.66
2023-04-09T10:15:57.469Z,101560.50
2023-04-09T10:21:03.191Z,101546.16
2023-04-09T10:26:07.920Z,101520.88
2023-04-09T10:31:10.681Z,101508.03
2023-04-09T10:36:14.327Z,101494.00
2023-04-09T10:41:24.126Z,101486.38
2023-04-09T10:46:28.125Z,101497.41
2023-04-09T10:51:36.089Z,101488.75
2023-04-09T10:56:40.212Z,101487.22
2023-04-09T11:01:53.651Z,101480.22
2023-04-09T11:06:57.304Z,101470.13
2023-04-09T11:12:01.839Z,101469.19
2023-04-09T11:17:04.643Z,101463.44
2023-04-09T11:22:07.544Z,101454.25
2023-04-09T11:27:11.661Z,101450.25
2023-04-09T11:32:14.437Z,101448.97
2023-04-09T11:37:17.745Z,101440.19
2023-04-09T11:42:22.722Z,101435.03
2023-04-09T11:47:25.578Z,101443.03
2023-04-09T11:52:30.646Z,101436.69
2023-04-09T11:57:43.942Z,101434.25
2023-04-09T12:02:48.197Z,101431.72
2023-04-09T12:07:56.315Z,101432.53
2023-04-09T12:13:04.530Z,101430.06
2023-04-09T12:18:09.491Z,101434.63
2023-04-09T12:23:13.077Z,101435.72
2023-04-09T12:28:18.313Z,101428.56
2023-04-09T12:33:21.716Z,101426.75
2023-04-09T12:38:24.432Z,101412.88
2023-04-09T12:43:28.512Z,101416.75
2023-04-09T12:48:31.272Z,101411.91
2023-04-09T12:53:34.037Z,101402.88
2023-04-09T12:58:38.536Z,101404.63
2023-04-09T13:03:42.135Z,101399.47
2023-04-09T13:08:45.153Z,101406.25
2023-04-09T13:13:49.346Z,101399.28
2023-04-09T13:18:52.763Z,101399.34
2023-04-09T13:23:55.650Z,101394.72
2023-04-09T13:28:59.746Z,101381.06
2023-04-09T13:34:02.832Z,101373.81
2023-04-09T13:39:05.906Z,101376.06
2023-04-09T13:44:10.203Z,101372.16
2023-04-09T13:49:13.001Z,101374.56
2023-04-09T13:54:15.682Z,101360.41
2023-04-09T13:59:19.793Z,101366.09
2023-04-09T14:04:22.667Z,101357.31
2023-04-09T14:09:25.442Z,101352.13
2023-04-09T14:14:29.566Z,101341.50
2023-04-09T14:19:32.295Z,101345.88
2023-04-09T14:24:39.745Z,101350.94
2023-04-09T14:29:44.314Z,101351.59
2023-04-09T14:34:47.074Z,101347.91
2023-04-09T14:39:49.877Z,101339.63
2023-04-09T14:44:53.986Z,101343.13
2023-04-09T14:49:56.761Z,101334.34
2023-04-09T14:54:59.932Z,101330.81
2023-04-09T15:00:04.750Z,101321.94
2023-04-09T15:05:08.640Z,101322.41
2023-04-09T15:10:11.891Z,101323.84
2023-04-09T15:15:16.214Z,101325.47
2023-04-09T15:20:19.158Z,101329.03
2023-04-09T15:25:22.060Z,101317.66
2023-04-09T15:30:26.479Z,101315.03
2023-04-09T15:35:29.369Z,101321.56
2023-04-09T15:40:32.405Z,101317.13
2023-04-09T15:45:36.498Z,101304.38
2023-04-09T15:50:39.639Z,101312.59
2023-04-09T15:55:42.505Z,101316.66
2023-04-09T16:00:46.695Z,101294.31
2023-04-09T16:05:49.559Z,101293.53
2023-04-09T16:10:53.082Z,101300.31
2023-04-09T16:15:57.156Z,101316.44
2023-04-09T16:20:59.988Z,101325.88
2023-04-09T16:26:03.138Z,101308.31
2023-04-09T16:31:07.615Z,101319.63
2023-04-09T16:36:10.486Z,101322.69
2023-04-09T16:41:13.321Z,101308.19
2023-04-09T16:46:17.488Z,101309.88
2023-04-09T16:51:20.537Z,101307.94
2023-04-09T16:56:23.333Z,101312.25
2023-04-09T17:01:27.528Z,101302.81
2023-04-09T17:06:30.855Z,101294.75
2023-04-09T17:11:33.642Z,101301.34
2023-04-09T17:16:38.058Z,101294.53
2023-04-09T17:21:41.869Z,101286.75
2023-04-09T17:26:44.678Z,101294.81
2023-04-09T17:31:50.666Z,101297.50
2023-04-09T17:36:56.807Z,101280.03
2023-04-09T17:42:00.791Z,101270.63
2023-04-09T17:47:05.013Z,101268.31
2023-04-09T17:52:07.824Z,101264.09
2023-04-09T17:57:10.676Z,101264.03
2023-04-09T18:02:14.900Z,101262.16
2023-04-09T18:07:18.130Z,101264.59
2023-04-09T18:12:20.860Z,101272.22
2023-04-09T18:17:26.276Z,101259.75
2023-04-09T18:22:29.070Z,101272.41
2023-04-09T18:27:31.806Z,101280.25
2023-04-09T18:32:36.001Z,101285.06
2023-04-09T18:37:38.985Z,101279.72
2023-04-09T18:42:41.734Z,101296.84
2023-04-09T18:47:45.974Z,101284.88
2023-04-09T18:52:48.713Z,101287.59
2023-04-09T18:57:52.556Z,101305.28
2023-04-09T19:02:56.804Z,101298.44
2023-04-09T19:08:00.262Z,101289.91
2023-04-09T19:13:03.351Z,101302.75
2023-04-09T19:18:07.750Z,101300.31
2023-04-09T19:23:10.773Z,101313.19
2023-04-09T19:28:13.506Z,101324.28
2023-04-09T19:33:17.798Z,101323.25
2023-04-09T19:38:21.207Z,101322.53
2023-04-09T19:43:23.937Z,101321.91
2023-04-09T19:48:28.074Z,101309.28
2023-04-09T19:53:30.971Z,101313.63
2023-04-09T19:58:33.723Z,101308.53
2023-04-09T20:03:38.021Z,101314.03
2023-04-09T20:08:40.874Z,101306.59
2023-04-09T20:13:43.945Z,101305.03
2023-04-09T20:18:48.039Z,101308.28
2023-04-09T20:23:50.781Z,101312.25
2023-04-09T20:28:53.755Z,101306.94
2023-04-09T20:33:58.029Z,101302.00
2023-04-09T20:39:00.972Z,101286.97
2023-04-09T20:44:03.736Z,101286.38
2023-04-09T20:49:07.838Z,101293.34
2023-04-09T20:54:10.549Z,101288.53
2023-04-09T20:59:13.310Z,101289.94
2023-04-09T21:04:17.601Z,101285.38
2023-04-09T21:09:20.546Z,101284.09
2023-04-09T21:14:23.307Z,101283.19
2023-04-09T21:19:27.385Z,101287.84
2023-04-09T21:24:31.121Z,101296.34
2023-04-09T21:29:34.288Z,101290.56
2023-04-09T21:34:39.492Z,101275.19
2023-04-09T21:39:42.256Z,101275.53
2023-04-09T21:44:44.991Z,101270.75
2023-04-09T21:49:50.165Z,101259.56
2023-04-09T21:54:52.926Z,101256.16
2023-04-09T21:59:55.722Z,101268.94
2023-04-09T22:05:01.115Z,101258.53
2023-04-09T22:10:03.978Z,101259.34
2023-04-09T22:15:07.298Z,101259.84
2023-04-09T22:20:11.822Z,101258.19
2023-04-09T22:25:14.962Z,101264.47
2023-04-09T22:30:17.712Z,101265.16
2023-04-09T22:35:21.770Z,101270.50
2023-04-09T22:40:24.442Z,101265.22
2023-04-09T22:45:27.968Z,101271.06
2023-04-09T22:50:32.363Z,101270.91
2023-04-09T22:55:35.428Z,101267.34
2023-04-09T23:00:38.162Z,101268.94
2023-04-09T23:05:42.367Z,101259.53
2023-04-09T23:10:45.204Z,101261.28
2023-04-09T23:15:47.942Z,101259.19
2023-04-09T23:20:52.056Z,101248.97
2023-04-09T23:25:54.968Z,101259.28
2023-04-09T23:30:57.818Z,101254.44
2023-04-09T23:36:01.963Z,101255.69
2023-04-09T23:41:04.953Z,101273.72
2023-04-09T23:46:07.949Z,101266.22
2023-04-09T23:51:17.886Z,101273.25
2023-04-09T23:56:20.622Z,101261.22
